Time;durP1;ratioP1;P1;durP2;ratioP2;P2;SDS_P1;SDS_P2;PMS_P1;PMS_P2;Temp;Humidity;BMP_temperature;BMP_pressure;BME280_temperature;BME280_humidity;BME280_pressure;Samples;Min_cycle;Max_cycle;Signal;HPM_P1;HPM_P2
2022/01/02 00:02:12;;;;;;;11.98;6.15;;;8.50;99.90;;;;;;5034858;28;20033;-87
2022/01/02 00:04:45;;;;;;;13.73;6.50;;;8.50;99.90;;;;;;5035653;28;20025;-88
2022/01/02 00:07:14;;;;;;;10.70;5.90;;;8.50;99.90;;;;;;5035551;28;20041;-86
2022/01/02 00:09:44;;;;;;;13.65;6.13;;;8.50;99.90;;;;;;5037347;28;20608;-87
2022/01/02 00:12:17;;;;;;;13.65;5.78;;;8.50;99.90;;;;;;5035321;28;20057;-87
2022/01/02 00:14:52;;;;;;;11.05;6.18;;;8.40;99.90;;;;;;5023229;28;20018;-87
2022/01/02 00:17:22;;;;;;;12.70;5.40;;;8.40;99.90;;;;;;5035972;28;20014;-87
2022/01/02 00:19:55;;;;;;;9.38;5.40;;;8.30;99.90;;;;;;5017680;28;20021;-87
2022/01/02 00:22:32;;;;;;;14.18;6.13;;;8.30;99.90;;;;;;5016305;28;20064;-88
2022/01/02 00:25:00;;;;;;;12.73;6.50;;;8.20;99.90;;;;;;5017471;28;20060;-87
2022/01/02 00:27:31;;;;;;;11.00;6.10;;;8.30;99.90;;;;;;5018626;28;20025;-88
2022/01/02 00:29:58;;;;;;;12.25;5.90;;;8.20;99.90;;;;;;5034222;28;20021;-86
2022/01/02 00:32:24;;;;;;;13.07;6.45;;;8.20;99.90;;;;;;5052758;28;20432;-87
2022/01/02 00:34:54;;;;;;;13.80;6.25;;;8.20;99.90;;;;;;5021285;28;20090;-84
2022/01/02 00:37:19;;;;;;;12.25;6.07;;;8.20;99.90;;;;;;5035165;28;20024;-86
2022/01/02 00:39:46;;;;;;;16.15;6.43;;;8.30;99.90;;;;;;5032969;28;20037;-86
2022/01/02 00:42:24;;;;;;;12.30;6.13;;;8.30;99.90;;;;;;5040078;28;20033;-83
2022/01/02 00:44:58;;;;;;;9.75;5.38;;;8.30;99.90;;;;;;5059080;28;20041;-84
2022/01/02 00:47:36;;;;;;;14.00;6.25;;;8.30;99.90;;;;;;5058574;28;20006;-84
2022/01/02 00:50:10;;;;;;;12.27;6.45;;;8.20;99.90;;;;;;5057594;28;20046;-87
2022/01/02 00:52:44;;;;;;;12.93;5.95;;;8.20;99.90;;;;;;5023339;28;20089;-84
2022/01/02 00:55:13;;;;;;;10.80;5.80;;;8.10;99.90;;;;;;5021171;28;20036;-85
2022/01/02 00:57:42;;;;;;;11.55;5.85;;;8.10;99.90;;;;;;5017236;28;20073;-87
2022/01/02 01:00:14;;;;;;;14.63;6.00;;;8.00;99.90;;;;;;5052756;28;20022;-86
2022/01/02 01:02:47;;;;;;;12.35;6.25;;;8.00;99.90;;;;;;5054436;28;20064;-88
2022/01/02 01:05:40;;;;;;;12.50;6.38;;;7.90;99.90;;;;;;5040443;28;20033;-84
2022/01/02 01:08:08;;;;;;;10.30;5.40;;;7.90;99.90;;;;;;5037371;28;20041;-84
2022/01/02 01:10:39;;;;;;;13.43;5.45;;;7.90;99.90;;;;;;5041800;28;20020;-84
2022/01/02 01:13:08;;;;;;;11.77;6.45;;;7.90;99.90;;;;;;5025074;28;20026;-85
2022/01/02 01:15:36;;;;;;;13.20;6.25;;;7.90;99.90;;;;;;5058661;28;20036;-83
2022/01/02 01:18:04;;;;;;;11.88;6.10;;;7.90;99.90;;;;;;5039386;28;20034;-87
2022/01/02 01:20:32;;;;;;;15.45;7.20;;;7.80;99.90;;;;;;5013731;28;20021;-85
2022/01/02 01:22:58;;;;;;;16.13;6.78;;;7.80;99.90;;;;;;5012250;28;20025;-88
2022/01/02 01:25:25;;;;;;;14.27;6.50;;;7.80;99.90;;;;;;5013597;28;20022;-85
2022/01/02 01:27:53;;;;;;;14.55;7.55;;;7.80;99.90;;;;;;5035598;28;20040;-85
2022/01/02 01:30:22;;;;;;;18.02;7.03;;;7.80;99.90;;;;;;5040828;28;20018;-83
2022/01/02 01:32:48;;;;;;;14.50;6.32;;;7.80;99.90;;;;;;5039790;28;20371;-87
2022/01/02 01:35:14;;;;;;;15.05;7.57;;;7.80;99.90;;;;;;5052017;28;20025;-87
2022/01/02 01:37:41;;;;;;;15.45;7.65;;;7.70;99.90;;;;;;5057586;28;20017;-85
2022/01/02 01:40:10;;;;;;;15.95;6.53;;;7.70;99.90;;;;;;5056934;28;20034;-86
2022/01/02 01:42:42;;;;;;;15.02;7.03;;;7.70;99.90;;;;;;5017225;28;20033;-86
2022/01/02 01:47:44;;;;;;;13.13;5.88;;;7.70;99.90;;;;;;5033287;28;20097;-87
2022/01/02 01:50:10;;;;;;;14.32;6.38;;;7.60;99.90;;;;;;5050156;28;20016;-88
2022/01/02 01:52:37;;;;;;;16.60;6.15;;;7.60;99.90;;;;;;5033180;28;20033;-86
2022/01/02 01:55:04;;;;;;;10.75;6.18;;;7.60;99.90;;;;;;5031806;28;20028;-86
2022/01/02 01:57:31;;;;;;;14.48;6.13;;;7.60;99.90;;;;;;5034226;28;20024;-86
2022/01/02 01:59:57;;;;;;;14.20;6.93;;;7.60;99.90;;;;;;5032209;28;20518;-88
2022/01/02 02:02:23;;;;;;;16.02;6.68;;;7.50;99.90;;;;;;5013128;28;20091;-88
2022/01/02 02:04:50;;;;;;;13.57;6.90;;;7.50;99.90;;;;;;5017835;28;20092;-87
2022/01/02 02:07:27;;;;;;;14.30;6.03;;;7.50;99.90;;;;;;5033131;28;20033;-86
2022/01/02 02:12:24;;;;;;;13.77;6.68;;;7.50;99.90;;;;;;5033620;28;20113;-87
2022/01/02 02:14:52;;;;;;;12.63;6.47;;;7.40;99.90;;;;;;5014642;28;20030;-87
2022/01/02 02:17:18;;;;;;;16.02;6.13;;;7.40;99.90;;;;;;5031562;28;20052;-87
2022/01/02 02:19:45;;;;;;;11.25;6.10;;;7.30;99.90;;;;;;5040856;28;20021;-88
2022/01/02 02:22:12;;;;;;;13.18;6.90;;;7.30;99.90;;;;;;5021836;28;20041;-88
2022/01/02 02:24:40;;;;;;;14.43;5.85;;;7.20;99.90;;;;;;5055425;28;20024;-88
2022/01/02 02:27:05;;;;;;;12.27;6.32;;;7.20;99.90;;;;;;5020051;28;20068;-88
2022/01/02 02:29:31;;;;;;;12.85;6.40;;;7.20;99.90;;;;;;5036352;28;20037;-87
2022/01/02 02:31:58;;;;;;;13.32;5.82;;;7.10;99.90;;;;;;5039389;28;20025;-86
2022/01/02 02:34:24;;;;;;;12.25;6.40;;;7.10;99.90;;;;;;5038863;28;20038;-87
2022/01/02 02:36:51;;;;;;;13.55;6.60;;;7.10;99.90;;;;;;5019659;28;20084;-86
2022/01/02 02:39:17;;;;;;;12.43;6.38;;;7.00;99.90;;;;;;5053533;28;20021;-88
2022/01/02 02:41:44;;;;;;;14.50;6.47;;;7.00;99.90;;;;;;5020758;28;20106;-86
2022/01/02 02:44:34;;;;;;;14.43;7.03;;;7.00;99.90;;;;;;5053080;28;20030;-86
2022/01/02 02:49:46;;;;;;;13.43;6.30;;;7.00;99.90;;;;;;5138283;22;20077;-85
2022/01/02 02:52:26;;;;;;;11.43;6.10;;;6.90;99.90;;;;;;5040662;28;20276;-86
2022/01/02 02:54:54;;;;;;;13.50;6.35;;;7.00;99.90;;;;;;5040657;28;20022;-87
2022/01/02 02:57:22;;;;;;;12.27;6.15;;;7.00;99.90;;;;;;5040658;28;20021;-86
2022/01/02 02:59:48;;;;;;;13.30;6.47;;;6.90;99.90;;;;;;5040098;28;20056;-87
2022/01/02 03:02:14;;;;;;;14.65;7.03;;;6.90;99.90;;;;;;5043125;28;20018;-87
2022/01/02 03:04:44;;;;;;;12.60;6.47;;;6.80;99.90;;;;;;5044400;28;20049;-88
2022/01/02 03:07:10;;;;;;;12.23;6.75;;;6.80;99.90;;;;;;5044546;28;20033;-87
2022/01/02 03:09:41;;;;;;;19.23;7.30;;;6.80;99.90;;;;;;5043974;28;20042;-87
2022/01/02 03:12:11;;;;;;;16.30;7.60;;;6.80;99.90;;;;;;5061366;28;20042;-87
2022/01/02 03:14:39;;;;;;;16.40;7.88;;;6.80;99.90;;;;;;5061288;28;20044;-87
2022/01/02 03:17:06;;;;;;;13.40;7.35;;;6.80;99.90;;;;;;5061228;28;20037;-87
2022/01/02 03:19:34;;;;;;;14.30;7.20;;;6.80;99.90;;;;;;5043996;28;20022;-88
2022/01/02 03:22:00;;;;;;;15.18;7.20;;;6.70;99.90;;;;;;5059175;28;20029;-85
2022/01/02 03:24:26;;;;;;;16.63;7.88;;;6.70;99.90;;;;;;5056408;28;20029;-84
2022/01/02 03:26:52;;;;;;;16.30;7.55;;;6.70;99.90;;;;;;5057931;28;20025;-85
2022/01/02 03:29:18;;;;;;;19.10;7.57;;;6.70;99.90;;;;;;5039352;28;20022;-84
2022/01/02 03:31:44;;;;;;;13.23;7.18;;;6.60;99.90;;;;;;5053375;28;20013;-86
2022/01/02 03:34:10;;;;;;;13.35;6.25;;;6.60;99.90;;;;;;5006175;28;20091;-86
2022/01/02 03:36:37;;;;;;;13.63;6.72;;;6.50;99.90;;;;;;5024628;28;20017;-85
2022/01/02 03:39:03;;;;;;;15.27;6.43;;;6.50;99.90;;;;;;5040408;28;20025;-85
2022/01/02 03:41:29;;;;;;;13.88;6.70;;;6.50;99.90;;;;;;5026188;28;20033;-84
2022/01/02 03:43:55;;;;;;;13.80;7.00;;;6.50;99.90;;;;;;5036204;28;20109;-86
2022/01/02 03:46:22;;;;;;;14.65;7.80;;;6.40;99.90;;;;;;5014134;28;20036;-85
2022/01/02 03:48:48;;;;;;;17.27;7.53;;;6.40;99.90;;;;;;5039009;28;20076;-86
2022/01/02 03:51:17;;;;;;;14.73;6.82;;;6.40;99.90;;;;;;5039906;28;20021;-86
2022/01/02 03:53:43;;;;;;;14.35;7.00;;;6.40;99.90;;;;;;5056315;28;20033;-84
2022/01/02 03:56:09;;;;;;;13.63;6.68;;;6.30;99.90;;;;;;5049713;28;20097;-87
2022/01/02 03:58:35;;;;;;;13.80;6.53;;;6.30;99.90;;;;;;5029884;28;20025;-85
2022/01/02 04:01:02;;;;;;;16.02;6.95;;;6.30;99.90;;;;;;5029145;28;20029;-86
2022/01/02 04:03:28;;;;;;;15.77;7.70;;;6.30;99.90;;;;;;5044239;28;20436;-86
2022/01/02 04:05:53;;;;;;;16.15;7.03;;;6.30;99.90;;;;;;5031585;28;20017;-86
2022/01/02 04:08:19;;;;;;;12.73;6.47;;;6.20;99.90;;;;;;5036699;28;20048;-84
2022/01/02 04:10:45;;;;;;;16.25;7.13;;;6.20;99.90;;;;;;5036058;28;20033;-84
2022/01/02 04:13:11;;;;;;;12.73;7.15;;;6.20;99.90;;;;;;5048028;28;20048;-86
2022/01/02 04:15:37;;;;;;;13.52;7.07;;;6.20;99.90;;;;;;5014353;28;20417;-85
2022/01/02 04:18:05;;;;;;;16.65;7.40;;;6.20;99.90;;;;;;5030783;28;20021;-85
2022/01/02 04:20:31;;;;;;;15.18;7.13;;;6.10;99.90;;;;;;5032467;28;20056;-86
2022/01/02 04:22:57;;;;;;;12.70;6.78;;;6.10;99.90;;;;;;5032926;28;20079;-86
2022/01/02 04:25:25;;;;;;;15.18;7.55;;;6.10;99.90;;;;;;5033115;28;20101;-84
2022/01/02 04:27:51;;;;;;;13.70;7.00;;;6.10;99.90;;;;;;5029548;28;20029;-86
2022/01/02 04:30:17;;;;;;;11.70;6.63;;;6.10;99.90;;;;;;5034450;28;20093;-83
2022/01/02 04:32:43;;;;;;;12.93;6.97;;;6.10;99.90;;;;;;5033323;28;20029;-86
2022/01/02 04:35:09;;;;;;;14.68;7.03;;;6.00;99.90;;;;;;5032129;28;20037;-85
2022/01/02 04:37:36;;;;;;;14.05;7.38;;;6.00;99.90;;;;;;5034670;28;20109;-85
2022/01/02 04:40:03;;;;;;;14.82;6.95;;;5.90;99.90;;;;;;5036957;28;20017;-87
2022/01/02 04:42:30;;;;;;;15.45;7.75;;;5.90;99.90;;;;;;5023318;28;20029;-87
2022/01/02 04:44:56;;;;;;;11.90;6.70;;;6.00;99.90;;;;;;5038379;28;20037;-86
2022/01/02 04:47:22;;;;;;;18.73;7.78;;;5.90;99.90;;;;;;5040251;28;20020;-85
2022/01/02 04:49:48;;;;;;;14.80;7.20;;;5.90;99.90;;;;;;5039214;28;20029;-84
2022/01/02 04:52:15;;;;;;;12.27;7.03;;;5.90;99.90;;;;;;5038429;28;20013;-83
2022/01/02 04:54:41;;;;;;;15.23;7.72;;;5.90;99.90;;;;;;5041740;28;20009;-84
2022/01/02 04:57:08;;;;;;;17.60;7.35;;;5.80;99.90;;;;;;5041490;28;20015;-84
2022/01/02 04:59:37;;;;;;;13.13;7.45;;;5.80;99.90;;;;;;5039425;28;20034;-83
2022/01/02 05:02:03;;;;;;;18.13;7.80;;;5.80;99.90;;;;;;5058201;28;20093;-84
2022/01/02 05:04:29;;;;;;;18.05;8.82;;;5.90;99.90;;;;;;5041247;28;20055;-85
2022/01/02 05:06:55;;;;;;;16.55;8.45;;;5.80;99.90;;;;;;5038370;28;20017;-86
2022/01/02 05:09:21;;;;;;;17.38;8.52;;;5.80;99.90;;;;;;5038667;28;20096;-84
2022/01/02 05:11:48;;;;;;;15.85;8.75;;;5.80;99.90;;;;;;5037746;28;20032;-86
2022/01/02 05:14:15;;;;;;;15.50;8.38;;;5.80;99.90;;;;;;5037441;28;20017;-84
2022/01/02 05:16:41;;;;;;;17.08;8.88;;;5.80;99.90;;;;;;5038440;28;20055;-84
2022/01/02 05:19:07;;;;;;;18.42;9.20;;;5.80;99.90;;;;;;5038195;28;20036;-85
2022/01/02 05:21:33;;;;;;;16.88;9.30;;;5.80;99.90;;;;;;5037166;28;20030;-87
2022/01/02 05:23:59;;;;;;;18.33;9.23;;;5.70;99.90;;;;;;5017272;28;20057;-85
2022/01/02 05:26:25;;;;;;;18.25;8.82;;;5.70;99.90;;;;;;5020562;28;20029;-83
2022/01/02 05:28:51;;;;;;;19.42;9.15;;;5.70;99.90;;;;;;5053684;28;20018;-86
2022/01/02 05:31:17;;;;;;;19.85;8.82;;;5.70;99.90;;;;;;5037134;28;20021;-86
2022/01/02 05:33:43;;;;;;;16.23;8.77;;;5.60;99.90;;;;;;5023483;28;20016;-85
2022/01/02 05:36:09;;;;;;;18.30;9.30;;;5.60;99.90;;;;;;5053690;28;20073;-85
2022/01/02 05:38:36;;;;;;;19.63;9.23;;;5.60;99.90;;;;;;5038605;28;20030;-86
2022/01/02 05:41:02;;;;;;;16.65;8.30;;;5.50;99.90;;;;;;5034531;28;20044;-84
2022/01/02 05:43:29;;;;;;;14.38;7.97;;;5.50;99.90;;;;;;5034592;28;20038;-85
2022/01/02 05:45:56;;;;;;;15.43;7.70;;;5.40;99.90;;;;;;5034415;28;20043;-85
2022/01/02 05:48:24;;;;;;;14.13;7.63;;;5.40;99.90;;;;;;5037737;28;20033;-85
2022/01/02 05:50:50;;;;;;;13.50;7.50;;;5.30;99.90;;;;;;5037344;28;20022;-84
2022/01/02 05:53:16;;;;;;;15.60;7.40;;;5.20;99.90;;;;;;5035648;28;20021;-84
2022/01/02 05:55:42;;;;;;;14.18;7.30;;;5.20;99.90;;;;;;5036152;28;20092;-86
2022/01/02 05:58:10;;;;;;;12.27;7.22;;;5.20;99.90;;;;;;5035666;28;20056;-84
2022/01/02 06:00:35;;;;;;;13.20;7.32;;;5.20;99.90;;;;;;5035026;28;20060;-86
2022/01/02 06:03:02;;;;;;;13.55;6.93;;;5.10;99.90;;;;;;5033141;28;20033;-84
2022/01/02 06:05:29;;;;;;;11.75;6.63;;;5.10;99.90;;;;;;5048909;28;20085;-85
2022/01/02 06:07:55;;;;;;;14.95;7.15;;;5.10;99.90;;;;;;5034810;28;20077;-86
2022/01/02 06:10:21;;;;;;;14.50;7.15;;;5.00;99.90;;;;;;5053330;28;20022;-84
2022/01/02 06:12:48;;;;;;;12.82;6.72;;;5.00;99.90;;;;;;5028500;28;20068;-85
2022/01/02 06:15:13;;;;;;;13.63;7.18;;;5.00;99.90;;;;;;5043800;28;20039;-85
2022/01/02 06:17:39;;;;;;;15.57;8.60;;;5.00;99.90;;;;;;5025953;28;20040;-85
2022/01/02 06:20:06;;;;;;;19.40;9.48;;;5.00;99.90;;;;;;5045634;28;20032;-85
2022/01/02 06:22:32;;;;;;;20.05;9.10;;;5.00;99.90;;;;;;5046418;28;20026;-85
2022/01/02 06:24:58;;;;;;;16.48;8.93;;;5.00;99.90;;;;;;5024094;28;20527;-85
2022/01/02 06:27:25;;;;;;;18.33;9.27;;;5.00;99.90;;;;;;5045391;28;20022;-85
2022/01/02 06:29:50;;;;;;;15.60;8.02;;;5.00;99.90;;;;;;5048778;28;20024;-85
2022/01/02 06:32:16;;;;;;;15.55;9.02;;;4.90;99.90;;;;;;5035063;28;20029;-84
2022/01/02 06:34:46;;;;;;;15.13;8.10;;;4.90;99.90;;;;;;5038597;28;20073;-85
2022/01/02 06:37:12;;;;;;;16.20;9.15;;;5.00;99.90;;;;;;5041005;28;20029;-85
2022/01/02 06:39:38;;;;;;;17.75;9.70;;;5.00;99.90;;;;;;5051699;28;20026;-87
2022/01/02 06:42:05;;;;;;;20.42;10.20;;;5.00;99.90;;;;;;5028143;28;20037;-85
2022/01/02 06:44:31;;;;;;;20.25;9.95;;;5.00;99.90;;;;;;5031942;28;20036;-84
2022/01/02 06:46:58;;;;;;;17.13;9.63;;;4.90;99.90;;;;;;5028155;28;20029;-86
2022/01/02 06:49:23;;;;;;;15.55;9.27;;;4.90;99.90;;;;;;5045118;28;20079;-84
2022/01/02 06:51:51;;;;;;;15.63;9.18;;;4.80;99.90;;;;;;5028851;28;20026;-84
2022/01/02 06:54:17;;;;;;;16.88;9.65;;;4.80;99.90;;;;;;5027417;28;20029;-84
2022/01/02 06:56:43;;;;;;;14.40;8.88;;;4.70;99.90;;;;;;5046161;28;20041;-85
2022/01/02 06:59:09;;;;;;;17.83;9.70;;;4.60;99.90;;;;;;5028205;28;20038;-86
2022/01/02 07:01:35;;;;;;;16.88;8.90;;;4.60;99.90;;;;;;5030161;28;20041;-86
2022/01/02 07:04:01;;;;;;;15.88;10.15;;;4.60;99.90;;;;;;5031987;28;20064;-85
2022/01/02 07:06:27;;;;;;;19.02;9.82;;;4.60;99.90;;;;;;5034772;28;20025;-85
2022/01/02 07:08:53;;;;;;;16.42;10.23;;;4.60;99.90;;;;;;5026445;28;20052;-87
2022/01/02 07:11:19;;;;;;;16.70;9.88;;;4.50;99.90;;;;;;5060951;28;20056;-86
2022/01/02 07:13:45;;;;;;;19.08;10.23;;;4.60;99.90;;;;;;5060495;28;20026;-86
2022/01/02 07:16:10;;;;;;;17.27;10.15;;;4.60;99.90;;;;;;5056629;28;20570;-85
2022/01/02 07:18:36;;;;;;;20.95;10.90;;;4.60;99.90;;;;;;5035078;28;20035;-84
2022/01/02 07:21:02;;;;;;;17.23;10.02;;;4.60;99.90;;;;;;5056516;28;20033;-85
2022/01/02 07:23:28;;;;;;;17.08;10.65;;;4.50;99.90;;;;;;5040410;28;20049;-85
2022/01/02 07:25:53;;;;;;;15.80;9.63;;;4.50;99.90;;;;;;5060543;28;20042;-86
2022/01/02 07:28:21;;;;;;;19.50;10.10;;;4.50;99.90;;;;;;5059870;28;20038;-87
2022/01/02 07:30:46;;;;;;;17.50;10.18;;;4.50;99.90;;;;;;5058879;28;20104;-86
2022/01/02 07:33:12;;;;;;;17.08;9.93;;;4.50;99.90;;;;;;5041347;28;20037;-85
2022/01/02 07:35:38;;;;;;;25.48;10.23;;;4.50;99.90;;;;;;5057765;28;20061;-88
2022/01/02 07:38:04;;;;;;;18.98;10.48;;;4.40;99.90;;;;;;5041646;28;20021;-86
2022/01/02 07:40:29;;;;;;;25.50;11.23;;;4.40;99.90;;;;;;5058345;28;20034;-85
2022/01/02 07:42:55;;;;;;;19.27;11.18;;;4.40;99.90;;;;;;5058283;28;20022;-85
2022/01/02 07:45:28;;;;;;;19.05;11.02;;;4.50;99.90;;;;;;5040220;28;20026;-86
2022/01/02 07:47:54;;;;;;;20.27;10.35;;;4.60;99.90;;;;;;5038502;28;20029;-87
2022/01/02 07:50:22;;;;;;;20.23;10.73;;;4.60;99.90;;;;;;5040123;28;20022;-85
2022/01/02 07:52:48;;;;;;;17.67;10.38;;;4.60;99.90;;;;;;5057037;28;20064;-85
2022/01/02 07:55:14;;;;;;;25.83;10.75;;;4.60;99.90;;;;;;5025523;28;20030;-85
2022/01/02 07:57:40;;;;;;;17.27;10.52;;;4.60;99.90;;;;;;5056901;28;20041;-86
2022/01/02 08:00:06;;;;;;;20.25;10.93;;;4.50;99.90;;;;;;5054645;28;20033;-85
2022/01/02 08:02:37;;;;;;;22.02;11.15;;;4.40;99.90;;;;;;5057869;28;20088;-84
2022/01/02 08:05:04;;;;;;;27.15;11.13;;;4.50;99.90;;;;;;5041908;28;20085;-85
2022/01/02 08:07:29;;;;;;;19.90;10.85;;;4.60;99.90;;;;;;5042948;28;20155;-86
2022/01/02 08:09:55;;;;;;;20.30;11.90;;;4.70;99.90;;;;;;5058002;28;20045;-85
2022/01/02 08:12:21;;;;;;;24.88;10.88;;;4.80;99.90;;;;;;5057161;28;20094;-85
2022/01/02 08:14:46;;;;;;;20.75;9.35;;;5.00;99.90;;;;;;5059472;28;20033;-85
2022/01/02 08:17:12;;;;;;;29.05;10.40;;;5.20;99.90;;;;;;5057496;28;20029;-86
2022/01/02 08:19:39;;;;;;;30.25;9.45;;;5.40;99.90;;;;;;5039488;28;20140;-86
2022/01/02 08:22:05;;;;;;;28.63;9.60;;;5.50;99.90;;;;;;5055779;28;20029;-84
2022/01/02 08:24:31;;;;;;;15.43;9.35;;;5.50;99.90;;;;;;5054566;28;20044;-84
2022/01/02 08:26:56;;;;;;;42.22;10.15;;;5.60;99.90;;;;;;5052170;28;20061;-85
2022/01/02 08:29:22;;;;;;;40.15;10.15;;;5.70;99.90;;;;;;5015834;28;20041;-85
2022/01/02 08:31:48;;;;;;;21.98;10.48;;;5.80;99.90;;;;;;5048394;28;20064;-85
2022/01/02 08:34:15;;;;;;;33.92;9.98;;;5.90;99.90;;;;;;5032002;28;20033;-84
2022/01/02 08:36:40;;;;;;;41.13;9.95;;;6.00;99.90;;;;;;5033175;28;20064;-85
2022/01/02 08:39:06;;;;;;;33.17;10.90;;;6.10;99.90;;;;;;5053210;28;20045;-84
2022/01/02 08:41:32;;;;;;;35.63;9.65;;;6.10;99.90;;;;;;5038009;28;20016;-86
2022/01/02 08:43:58;;;;;;;26.98;10.02;;;6.20;99.90;;;;;;5055487;28;20033;-84
2022/01/02 08:46:23;;;;;;;28.73;11.35;;;6.30;99.90;;;;;;5037369;28;20052;-85
2022/01/02 08:48:49;;;;;;;29.85;10.50;;;6.30;99.90;;;;;;5070849;23;20046;-88
2022/01/02 08:51:16;;;;;;;24.75;10.70;;;6.40;99.90;;;;;;5046172;28;20028;-88
2022/01/02 08:53:42;;;;;;;30.63;11.88;;;6.50;99.90;;;;;;5028714;28;20061;-87
2022/01/02 08:56:08;;;;;;;30.15;12.50;;;6.80;99.90;;;;;;5032734;28;20056;-88
2022/01/02 08:58:34;;;;;;;30.48;10.57;;;6.90;99.90;;;;;;5050970;28;20029;-87
2022/01/02 09:01:00;;;;;;;21.70;10.90;;;7.10;99.90;;;;;;5039909;28;20059;-90
2022/01/02 09:03:26;;;;;;;20.10;10.10;;;7.20;99.90;;;;;;5041835;28;20021;-87
2022/01/02 09:05:52;;;;;;;23.20;11.98;;;7.30;99.90;;;;;;5042607;28;20017;-89
2022/01/02 09:08:18;;;;;;;22.50;9.98;;;7.40;99.90;;;;;;5042010;28;20093;-88
2022/01/02 09:10:44;;;;;;;25.00;10.93;;;7.40;99.90;;;;;;5059331;28;20013;-89
2022/01/02 09:13:10;;;;;;;32.67;11.90;;;7.30;99.90;;;;;;5058387;28;20033;-88
2022/01/02 09:15:36;;;;;;;20.77;10.48;;;7.20;99.90;;;;;;5041876;28;20029;-88
2022/01/02 09:18:03;;;;;;;19.05;10.55;;;7.20;99.90;;;;;;5045434;28;20044;-88
2022/01/02 09:20:30;;;;;;;18.45;10.85;;;7.20;99.90;;;;;;5029267;28;20429;-87
2022/01/02 09:22:56;;;;;;;20.77;10.50;;;7.30;99.90;;;;;;5031154;28;20036;-87
2022/01/02 09:25:22;;;;;;;21.05;11.15;;;7.30;99.90;;;;;;5020469;28;20049;-88
2022/01/02 09:27:48;;;;;;;20.35;10.80;;;7.30;99.90;;;;;;5021383;28;20029;-89
2022/01/02 09:30:13;;;;;;;20.73;11.30;;;7.30;99.90;;;;;;5035706;28;20145;-88
2022/01/02 09:32:40;;;;;;;23.48;11.40;;;7.30;99.90;;;;;;5037631;28;20044;-88
2022/01/02 09:35:08;;;;;;;20.25;10.70;;;7.40;99.90;;;;;;5019181;28;20029;-89
2022/01/02 09:37:35;;;;;;;22.05;11.25;;;7.60;99.90;;;;;;5034599;28;20044;-88
2022/01/02 09:40:15;;;;;;;19.27;11.30;;;7.90;99.90;;;;;;5033071;28;20029;-88
2022/01/02 09:42:41;;;;;;;17.08;10.27;;;8.60;99.90;;;;;;5013624;28;20069;-90
2022/01/02 09:45:08;;;;;;;17.77;9.30;;;9.90;99.90;;;;;;5015389;28;20044;-88
2022/01/02 09:47:34;;;;;;;14.30;8.30;;;11.50;99.90;;;;;;5030229;28;20060;-89
2022/01/02 09:50:05;;;;;;;12.45;8.13;;;13.40;99.90;;;;;;5032222;28;20045;-89
2022/01/02 09:52:32;;;;;;;12.70;8.40;;;14.30;99.90;;;;;;5037538;28;20017;-90
2022/01/02 09:54:59;;;;;;;11.48;7.88;;;15.50;99.90;;;;;;5037789;28;20048;-88
2022/01/02 09:57:25;;;;;;;13.52;8.90;;;16.20;99.90;;;;;;5035115;28;20088;-88
2022/01/02 09:59:51;;;;;;;13.32;8.88;;;16.80;99.90;;;;;;5049971;28;20028;-89
2022/01/02 10:02:17;;;;;;;15.77;9.10;;;16.70;99.90;;;;;;5052046;28;20411;-91
2022/01/02 10:04:43;;;;;;;13.80;8.82;;;16.60;99.90;;;;;;5020760;28;20033;-88
2022/01/02 10:07:31;;;;;;;13.00;8.35;;;17.00;99.90;;;;;;5052356;28;20034;-90
2022/01/02 10:09:58;;;;;;;14.50;8.75;;;17.60;98.80;;;;;;5051569;28;20424;-89
2022/01/02 10:12:31;;;;;;;12.13;8.65;;;17.40;98.70;;;;;;5016218;28;20052;-90
2022/01/02 10:15:20;;;;;;;12.75;8.75;;;17.80;98.20;;;;;;5050647;28;20021;-90
2022/01/02 10:18:09;;;;;;;12.45;8.40;;;17.40;98.00;;;;;;5033884;28;20034;-88
2022/01/02 10:20:45;;;;;;;12.15;8.57;;;17.80;97.90;;;;;;5032927;28;20037;-89
2022/01/02 10:23:16;;;;;;;13.75;7.90;;;18.60;96.80;;;;;;5049941;28;20049;-90
2022/01/02 10:26:10;;;;;;;12.00;8.95;;;18.90;96.00;;;;;;5017632;28;20084;-88
2022/01/02 10:28:42;;;;;;;11.18;8.00;;;18.70;95.50;;;;;;5044385;28;20056;-89
2022/01/02 10:31:15;;;;;;;14.60;8.88;;;18.40;96.10;;;;;;5033869;28;20067;-89
2022/01/02 10:33:51;;;;;;;12.18;8.95;;;17.50;96.60;;;;;;5036717;28;20067;-88
2022/01/02 10:36:35;;;;;;;13.45;9.50;;;17.10;97.50;;;;;;5050389;28;20026;-88
2022/01/02 10:39:07;;;;;;;15.23;9.45;;;17.10;97.60;;;;;;5032223;28;20032;-88
2022/01/02 10:41:45;;;;;;;15.02;10.20;;;17.50;97.20;;;;;;5031804;28;20037;-88
2022/01/02 10:44:17;;;;;;;12.63;8.90;;;17.90;96.70;;;;;;5032711;28;20029;-88
2022/01/02 10:47:05;;;;;;;11.02;8.15;;;18.60;95.80;;;;;;5016029;28;20089;-88
2022/01/02 10:50:06;;;;;;;13.55;9.57;;;19.50;94.70;;;;;;5031770;28;20109;-89
2022/01/02 10:52:40;;;;;;;11.35;8.15;;;19.90;93.60;;;;;;5029490;28;20037;-88
2022/01/02 10:55:21;;;;;;;11.35;8.43;;;20.10;93.10;;;;;;5016975;28;20056;-89
2022/01/02 10:57:52;;;;;;;12.07;8.65;;;20.20;92.40;;;;;;5023367;28;20033;-89
2022/01/02 11:00:22;;;;;;;10.00;7.78;;;20.20;92.40;;;;;;5056821;28;20033;-88
2022/01/02 11:02:48;;;;;;;10.68;8.05;;;20.70;91.90;;;;;;5034254;28;20117;-88
2022/01/02 11:05:18;;;;;;;13.52;9.45;;;21.30;91.10;;;;;;5027794;28;20033;-88
2022/01/02 11:07:46;;;;;;;10.40;7.05;;;22.10;90.10;;;;;;5010546;28;20030;-88
2022/01/02 11:10:18;;;;;;;11.00;7.35;;;22.60;88.00;;;;;;5037151;28;20044;-89
2022/01/02 11:12:45;;;;;;;9.70;7.38;;;23.60;85.70;;;;;;5030925;28;20091;-88
2022/01/02 11:15:13;;;;;;;10.73;8.02;;;23.90;83.00;;;;;;5017801;28;20033;-88
2022/01/02 11:17:40;;;;;;;11.10;8.48;;;23.60;82.00;;;;;;5038986;28;20056;-89
2022/01/02 11:20:08;;;;;;;11.05;7.95;;;24.00;80.40;;;;;;5040341;28;20081;-90
2022/01/02 11:22:58;;;;;;;9.45;7.05;;;23.80;79.50;;;;;;5057379;28;20061;-88
2022/01/02 11:25:50;;;;;;;10.10;7.82;;;24.00;79.10;;;;;;5058007;28;20040;-90
2022/01/02 11:28:40;;;;;;;10.52;7.32;;;24.00;78.50;;;;;;5047511;28;20064;-89
2022/01/02 11:31:09;;;;;;;11.18;8.38;;;24.10;77.20;;;;;;5046226;28;20021;-88
2022/01/02 11:33:39;;;;;;;10.02;7.72;;;24.20;76.80;;;;;;5030662;28;20049;-89
2022/01/02 11:36:30;;;;;;;11.73;7.50;;;24.30;75.60;;;;;;5033314;28;20029;-88
2022/01/02 11:39:05;;;;;;;9.00;7.47;;;23.70;76.30;;;;;;5032028;28;20057;-88
2022/01/02 11:41:47;;;;;;;10.27;7.40;;;24.00;76.20;;;;;;5035207;28;20039;-89
2022/01/02 11:44:16;;;;;;;9.30;7.32;;;24.00;76.20;;;;;;5047599;28;20034;-88
2022/01/02 11:46:52;;;;;;;10.40;7.38;;;24.00;74.60;;;;;;5033826;28;20029;-90
2022/01/02 11:49:26;;;;;;;13.07;7.82;;;22.60;76.60;;;;;;5041275;28;20096;-89
2022/01/02 11:51:58;;;;;;;12.38;7.65;;;21.30;79.20;;;;;;5013708;28;20030;-86
2022/01/02 11:54:27;;;;;;;9.75;7.57;;;20.00;82.00;;;;;;5030805;28;20029;-89
2022/01/02 11:56:57;;;;;;;9.65;6.88;;;18.90;85.00;;;;;;5045827;28;20024;-88
2022/01/02 11:59:38;;;;;;;12.82;7.70;;;18.20;87.40;;;;;;5032327;28;20087;-88
2022/01/02 12:02:33;;;;;;;14.95;7.65;;;17.50;89.80;;;;;;5059516;28;20037;-86
2022/01/02 12:07:34;;;;;;;10.88;7.85;;;16.20;92.30;;;;;;5032540;28;20034;-86
2022/01/02 12:10:22;;;;;;;12.23;7.63;;;15.70;93.40;;;;;;5022214;28;20101;-87
2022/01/02 12:13:05;;;;;;;10.98;7.50;;;15.10;95.00;;;;;;5023578;28;20041;-86
2022/01/02 12:15:34;;;;;;;11.82;7.88;;;14.60;96.50;;;;;;5028564;28;20026;-89
2022/01/02 12:18:38;;;;;;;10.23;6.47;;;14.30;97.80;;;;;;5029918;28;20021;-87
2022/01/02 12:21:04;;;;;;;13.52;6.82;;;13.90;99.20;;;;;;5015409;28;20060;-88
2022/01/02 12:23:33;;;;;;;11.98;6.65;;;13.70;99.90;;;;;;5033726;28;20030;-88
2022/01/02 12:26:02;;;;;;;12.18;7.40;;;13.60;99.90;;;;;;5015127;28;20025;-88
2022/01/02 12:28:37;;;;;;;11.23;7.43;;;13.20;99.90;;;;;;5022545;28;20053;-86
2022/01/02 12:31:04;;;;;;;14.90;8.27;;;13.00;99.90;;;;;;5014354;28;20060;-86
2022/01/02 12:33:30;;;;;;;14.82;8.05;;;12.80;99.90;;;;;;5030450;28;20026;-88
2022/01/02 12:36:07;;;;;;;13.63;8.40;;;12.60;99.90;;;;;;5031065;28;20029;-87
2022/01/02 12:38:48;;;;;;;12.20;7.65;;;12.40;99.90;;;;;;5045140;28;20029;-87
2022/01/02 12:41:15;;;;;;;11.68;7.05;;;12.20;99.90;;;;;;5035582;28;20021;-87
2022/01/02 12:43:57;;;;;;;13.38;7.65;;;12.10;99.90;;;;;;5019039;28;20067;-85
2022/01/02 12:46:47;;;;;;;13.77;7.85;;;12.10;99.90;;;;;;5047915;28;20065;-87
2022/01/02 12:49:23;;;;;;;10.60;6.75;;;11.90;99.90;;;;;;5014635;28;20048;-85
2022/01/02 12:52:01;;;;;;;13.90;7.35;;;11.80;99.90;;;;;;5050227;28;20092;-89
2022/01/02 12:54:31;;;;;;;14.98;8.70;;;11.80;99.90;;;;;;5030723;28;20040;-85
2022/01/02 12:57:02;;;;;;;17.92;8.35;;;11.70;99.90;;;;;;5026734;28;20043;-88
2022/01/02 12:59:39;;;;;;;14.02;8.23;;;11.50;99.90;;;;;;5019761;28;20024;-86
2022/01/02 13:02:13;;;;;;;12.95;7.93;;;11.60;99.90;;;;;;5058748;28;20036;-86
2022/01/02 13:04:56;;;;;;;18.55;8.52;;;11.60;99.90;;;;;;5058004;28;20029;-85